Map

Track Data

SID SEASON NUMBER BASIN SUBBASIN NAME ISO_TIME NATURE LAT LON WMO_WIND WMO_PRES WMO_AGENCY TRACK_TYPE DIST2LAND LANDFALL IFLAG USA_AGENCY USA_ATCF_ID USA_LAT USA_LON USA_RECORD USA_STATUS USA_WIND USA_PRES USA_SSHS USA_R34_NE USA_R34_SE USA_R34_SW USA_R34_NW USA_R50_NE USA_R50_SE USA_R50_SW USA_R50_NW USA_R64_NE USA_R64_SE USA_R64_SW USA_R64_NW USA_POCI USA_ROCI USA_RMW USA_EYE TOKYO_LAT TOKYO_LON TOKYO_GRADE TOKYO_WIND TOKYO_PRES TOKYO_R50_DIR TOKYO_R50_LONG TOKYO_R50_SHORT TOKYO_R30_DIR TOKYO_R30_LONG TOKYO_R30_SHORT TOKYO_LAND CMA_LAT CMA_LON CMA_CAT CMA_WIND CMA_PRES HKO_LAT HKO_LON HKO_CAT HKO_WIND HKO_PRES NEWDELHI_LAT NEWDELHI_LON NEWDELHI_GRADE NEWDELHI_WIND NEWDELHI_PRES NEWDELHI_CI NEWDELHI_DP NEWDELHI_POCI REUNION_LAT REUNION_LON REUNION_TYPE REUNION_WIND REUNION_PRES REUNION_TNUM REUNION_CI REUNION_RMW REUNION_R34_NE REUNION_R34_SE REUNION_R34_SW REUNION_R34_NW REUNION_R50_NE REUNION_R50_SE REUNION_R50_SW REUNION_R50_NW REUNION_R64_NE REUNION_R64_SE REUNION_R64_SW REUNION_R64_NW BOM_LAT BOM_LON BOM_TYPE BOM_WIND BOM_PRES BOM_TNUM BOM_CI BOM_RMW BOM_R34_NE BOM_R34_SE BOM_R34_SW BOM_R34_NW BOM_R50_NE BOM_R50_SE BOM_R50_SW BOM_R50_NW BOM_R64_NE BOM_R64_SE BOM_R64_SW BOM_R64_NW BOM_ROCI BOM_POCI BOM_EYE BOM_POS_METHOD BOM_PRES_METHOD NADI_LAT NADI_LON NADI_CAT NADI_WIND NADI_PRES WELLINGTON_LAT WELLINGTON_LON WELLINGTON_WIND WELLINGTON_PRES DS824_LAT DS824_LON DS824_STAGE DS824_WIND DS824_PRES TD9636_LAT TD9636_LON TD9636_STAGE TD9636_WIND TD9636_PRES TD9635_LAT TD9635_LON TD9635_WIND TD9635_PRES TD9635_ROCI NEUMANN_LAT NEUMANN_LON NEUMANN_CLASS NEUMANN_WIND NEUMANN_PRES MLC_LAT MLC_LON MLC_CLASS MLC_WIND MLC_PRES USA_GUST BOM_GUST BOM_GUST_PER REUNION_GUST REUNION_GUST_PER USA_SEAHGT USA_SEARAD_NE USA_SEARAD_SE USA_SEARAD_SW USA_SEARAD_NW STORM_SPEED STORM_DIR
1929244S05078 1930 53 SI MM NOT_NAMED 1929-09-01 06:00:00 NR -4.50000 77.5000 main 1215 1215 __________O___ -1 -4.50000 77.5000 7 9 255
1929244S05078 1930 53 SI MM NOT_NAMED 1929-09-01 09:00:00 NR -4.61106 77.0766 main 1239 1239 __________P___ -1 -4.61106 77.0766 7 9 255
1929244S05078 1930 53 SI MM NOT_NAMED 1929-09-01 12:00:00 NR -4.72760 76.6425 main 1267 1267 __________P___ -1 -4.72760 76.6425 7 9 255
1929244S05078 1930 53 SI MM NOT_NAMED 1929-09-01 15:00:00 NR -4.85536 76.1871 main 1303 1303 __________P___ -1 -4.85536 76.1871 7 10 254
1929244S05078 1930 53 SI MM NOT_NAMED 1929-09-01 18:00:00 NR -5.00000 75.7000 main 1334 1334 __________O___ -1 -5.00000 75.7000 7 11 253
1929244S05078 1930 53 SI MM NOT_NAMED 1929-09-01 21:00:00 NR -5.16468 75.1747 main 1377 1377 __________P___ -1 -5.16468 75.1747 7 11 252
1929244S05078 1930 53 SI MM NOT_NAMED 1929-09-02 00:00:00 NR -5.34250 74.6225 main 1415 1415 __________P___ -1 -5.34250 74.6225 7 12 252
1929244S05078 1930 53 SI MM NOT_NAMED 1929-09-02 03:00:00 NR -5.52404 74.0590 main 1461 1461 __________P___ -1 -5.52404 74.0590 7 12 252
1929244S05078 1930 53 SI MM NOT_NAMED 1929-09-02 06:00:00 NR -5.70000 73.5000 main 1513 1513 __________O___ -1 -5.70000 73.5000 7 11 253
1929244S05078 1930 53 SI MM NOT_NAMED 1929-09-02 09:00:00 NR -5.85286 72.9798 main 1560 1560 __________P___ -1 -5.85286 72.9798 7 11 254
1929244S05078 1930 53 SI MM NOT_NAMED 1929-09-02 12:00:00 NR -5.99962 72.4647 main 1599 1599 __________P___ -1 -5.99962 72.4647 7 11 254
1929244S05078 1930 53 SI MM NOT_NAMED 1929-09-02 15:00:00 NR -6.14658 71.9423 main 1646 1646 __________P___ -1 -6.14658 71.9423 7 11 254
1929244S05078 1930 53 SI MM NOT_NAMED 1929-09-02 18:00:00 NR -6.30000 71.4000 main 1696 1696 __________O___ -1 -6.30000 71.4000 7 12 254
1929244S05078 1930 53 SI MM NOT_NAMED 1929-09-02 21:00:00 NR -6.48844 70.7610 main 1753 1753 __________P___ -1 -6.48844 70.7610 7 13 253
1929244S05078 1930 53 SI MM NOT_NAMED 1929-09-03 00:00:00 NR -6.68050 70.1104 main 1819 1819 __________P___ -1 -6.68050 70.1104 7 13 254
1929244S05078 1930 53 SI MM NOT_NAMED 1929-09-03 03:00:00 NR -6.85725 69.5047 main 1878 1878 __________P___ -1 -6.85725 69.5047 7 12 254
1929244S05078 1930 53 SI MM NOT_NAMED 1929-09-03 06:00:00 NR -7.00000 69.0000 main 1907 1877 __________O___ -1 -7.00000 69.0000 7 9 255
1929244S05078 1930 53 SI MM NOT_NAMED 1929-09-03 09:00:00 NR -7.08137 68.6751 main 1877 1864 __________P___ -1 -7.08137 68.6751 7 6 257
1929244S05078 1930 53 SI MM NOT_NAMED 1929-09-03 12:00:00 NR -7.12939 68.4522 main 1864 1841 __________P___ -1 -7.12939 68.4522 7 4 258
1929244S05078 1930 53 SI MM NOT_NAMED 1929-09-03 15:00:00 NR -7.16274 68.2783 main 1841 1828 __________P___ -1 -7.16274 68.2783 7 4 259
1929244S05078 1930 53 SI MM NOT_NAMED 1929-09-03 18:00:00 NR -7.20000 68.1000 main 1828 1799 __________O___ -1 -7.20000 68.1000 7 5 256
1929244S05078 1930 53 SI MM NOT_NAMED 1929-09-03 21:00:00 NR -7.27604 67.8069 main 1799 1771 __________P___ -1 -7.27604 67.8069 7 6 255
1929244S05078 1930 53 SI MM NOT_NAMED 1929-09-04 00:00:00 NR -7.35765 67.5051 main 1771 1752 __________P___ -1 -7.35765 67.5051 7 6 255
1929244S05078 1930 53 SI MM NOT_NAMED 1929-09-04 03:00:00 NR -7.43542 67.2257 main 1752 1730 __________P___ -1 -7.43542 67.2257 7 5 254
1929244S05078 1930 53 SI MM NOT_NAMED 1929-09-04 06:00:00 NR -7.50000 67.0000 main 1730 1724 __________O___ -1 -7.50000 67.0000 7 4 254
1929244S05078 1930 53 SI MM NOT_NAMED 1929-09-04 09:00:00 NR -7.53521 66.8634 main 1724 1708 __________P___ -1 -7.53521 66.8634 7 2 255
1929244S05078 1930 53 SI MM NOT_NAMED 1929-09-04 12:00:00 NR -7.55738 66.7824 main 1708 1702 __________P___ -1 -7.55738 66.7824 7 1 252
1929244S05078 1930 53 SI MM NOT_NAMED 1929-09-04 15:00:00 NR -7.57587 66.7353 main 1702 1702 __________P___ -1 -7.57587 66.7353 7 1 241
1929244S05078 1930 53 SI MM NOT_NAMED 1929-09-04 18:00:00 NR -7.60000 66.7000 main 1702 1702 __________O___ -1 -7.60000 66.7000 7 1 231
1929244S05078 1930 53 SI MM NOT_NAMED 1929-09-04 21:00:00 NR -7.63692 66.6588 main 1702 1687 __________P___ -1 -7.63692 66.6588 7 1 227
1929244S05078 1930 53 SI MM NOT_NAMED 1929-09-05 00:00:00 NR -7.68505 66.6100 main 1687 1687 __________P___ -1 -7.68505 66.6100 7 1 226
1929244S05078 1930 53 SI MM NOT_NAMED 1929-09-05 03:00:00 NR -7.74066 66.5563 main 1687 1671 __________P___ -1 -7.74066 66.5563 7 2 223
1929244S05078 1930 53 SI MM NOT_NAMED 1929-09-05 06:00:00 NR -7.80000 66.5000 main 1671 __________O___ -1 -7.80000 66.5000 7 2 221

About IBTrACS Database

This database is a web-friendly format of International Best Track Archive for Climate Stewardship (IBTrACS), a global best track data archive curated by NOAA dating back to 1842.

Updated: 2021-11-26